createdAt,value
2023-11-15T00:00:01.482Z,8.89
2023-11-15T00:02:30.423Z,8.86
2023-11-15T00:04:58.777Z,8.95
2023-11-15T00:07:26.596Z,8.92
2023-11-15T00:09:54.725Z,8.90
2023-11-15T00:12:23.101Z,8.89
2023-11-15T00:14:52.847Z,8.86
2023-11-15T00:17:21.091Z,8.90
2023-11-15T00:19:50.660Z,8.92
2023-11-15T00:22:18.678Z,8.88
2023-11-15T00:24:46.977Z,8.88
2023-11-15T00:27:14.685Z,8.87
2023-11-15T00:29:42.924Z,8.74
2023-11-15T00:32:11.546Z,8.68
2023-11-15T00:34:39.657Z,8.57
2023-11-15T00:37:07.781Z,8.57
2023-11-15T00:39:35.854Z,8.51
2023-11-15T00:42:04.958Z,8.51
2023-11-15T00:44:33.516Z,8.53
2023-11-15T00:47:01.628Z,8.46
2023-11-15T00:49:30.734Z,8.46
2023-11-15T00:51:58.551Z,8.41
2023-11-15T00:54:26.682Z,8.40
2023-11-15T00:56:57.044Z,8.42
2023-11-15T00:59:37.604Z,8.45
2023-11-15T01:02:06.667Z,8.49
2023-11-15T01:04:36.076Z,8.56
2023-11-15T01:07:04.518Z,8.43
2023-11-15T01:09:35.193Z,8.34
2023-11-15T01:12:05.081Z,8.30
2023-11-15T01:14:33.308Z,8.18
2023-11-15T01:17:01.155Z,8.13
2023-11-15T01:19:30.181Z,8.04
2023-11-15T01:21:58.976Z,7.98
2023-11-15T01:24:28.213Z,7.87
2023-11-15T01:26:56.798Z,7.88
2023-11-15T01:29:24.823Z,7.93
2023-11-15T01:31:52.632Z,7.98
2023-11-15T01:34:20.730Z,8.08
2023-11-15T01:36:49.270Z,7.88
2023-11-15T01:39:17.855Z,7.77
2023-11-15T01:41:49.373Z,7.70
2023-11-15T01:44:18.823Z,7.69
2023-11-15T01:46:51.110Z,7.64
2023-11-15T01:49:21.464Z,7.65
2023-11-15T01:51:53.898Z,7.62
2023-11-15T01:54:23.242Z,7.77
2023-11-15T01:56:51.146Z,7.76
2023-11-15T01:59:19.847Z,7.86
2023-11-15T02:01:48.993Z,8.00
2023-11-15T02:04:17.095Z,8.08
2023-11-15T02:06:44.927Z,8.21
2023-11-15T02:09:13.120Z,8.26
2023-11-15T02:11:41.144Z,8.25
2023-11-15T02:14:10.899Z,8.26
2023-11-15T02:16:39.011Z,8.27
2023-11-15T02:19:09.221Z,8.32
2023-11-15T02:21:37.416Z,8.36
2023-11-15T02:24:06.293Z,8.43
2023-11-15T02:26:33.969Z,8.44
2023-11-15T02:29:01.921Z,8.50
2023-11-15T02:31:29.787Z,8.51
2023-11-15T02:33:57.698Z,8.55
2023-11-15T02:36:25.468Z,8.62
2023-11-15T02:38:54.353Z,8.64
2023-11-15T02:41:22.507Z,8.69
2023-11-15T02:43:50.542Z,8.74
2023-11-15T02:46:24.008Z,8.74
2023-11-15T02:48:52.652Z,8.72
2023-11-15T02:51:20.517Z,8.76
2023-11-15T02:53:49.987Z,8.72
2023-11-15T02:56:17.704Z,8.72
2023-11-15T02:58:45.670Z,8.73
2023-11-15T03:01:14.144Z,8.76
2023-11-15T03:03:42.289Z,8.81
2023-11-15T03:06:10.797Z,8.81
2023-11-15T03:08:38.879Z,8.85
2023-11-15T03:11:07.169Z,8.91
2023-11-15T03:13:35.460Z,8.86
2023-11-15T03:16:03.373Z,8.91
2023-11-15T03:18:31.508Z,8.86
2023-11-15T03:20:59.941Z,8.93
2023-11-15T03:23:27.975Z,8.95
2023-11-15T03:25:55.752Z,8.91
2023-11-15T03:28:23.713Z,8.88
2023-11-15T03:30:51.450Z,8.85
2023-11-15T03:33:20.183Z,8.81
2023-11-15T03:35:48.062Z,8.75
2023-11-15T03:38:16.265Z,8.76
2023-11-15T03:40:44.302Z,8.81
2023-11-15T03:43:12.902Z,8.82
2023-11-15T03:45:40.654Z,8.81
2023-11-15T03:48:10.637Z,8.77
2023-11-15T03:50:38.613Z,8.76
2023-11-15T03:53:06.883Z,8.78
2023-11-15T03:55:34.619Z,8.74
2023-11-15T03:58:03.092Z,8.73
2023-11-15T04:00:30.968Z,8.68
2023-11-15T04:02:59.070Z,8.71
2023-11-15T04:05:29.373Z,8.77
2023-11-15T04:07:57.816Z,8.70
2023-11-15T04:10:25.889Z,8.66
2023-11-15T04:12:55.790Z,8.69
2023-11-15T04:15:23.672Z,8.71
2023-11-15T04:17:51.920Z,8.72
2023-11-15T04:20:19.823Z,8.69
2023-11-15T04:22:47.831Z,8.68
2023-11-15T04:25:15.876Z,8.67
2023-11-15T04:27:43.890Z,8.63
2023-11-15T04:30:12.355Z,8.70
2023-11-15T04:32:40.831Z,8.73
2023-11-15T04:35:09.083Z,8.73
2023-11-15T04:37:37.083Z,8.71
2023-11-15T04:40:07.869Z,8.74
2023-11-15T04:42:36.055Z,8.74
2023-11-15T04:45:04.604Z,8.75
2023-11-15T04:47:33.291Z,8.76
2023-11-15T04:50:01.545Z,8.74
2023-11-15T04:52:29.768Z,8.73
2023-11-15T04:54:57.513Z,8.74
2023-11-15T04:57:27.033Z,8.80
2023-11-15T04:59:56.722Z,8.77
2023-11-15T05:02:25.130Z,8.75
2023-11-15T05:04:53.710Z,8.76
2023-11-15T05:07:23.977Z,8.77
2023-11-15T05:09:51.779Z,8.84
2023-11-15T05:12:19.881Z,8.79
2023-11-15T05:14:47.632Z,8.76
2023-11-15T05:17:16.140Z,8.73
2023-11-15T05:19:43.941Z,8.73
2023-11-15T05:22:12.138Z,8.73
2023-11-15T05:24:42.073Z,8.72
2023-11-15T05:27:11.102Z,8.69
2023-11-15T05:29:38.929Z,8.65
2023-11-15T05:32:07.559Z,8.65
2023-11-15T05:34:35.730Z,8.65
2023-11-15T05:37:03.713Z,8.66
2023-11-15T05:39:31.493Z,8.68
2023-11-15T05:41:59.787Z,8.67
2023-11-15T05:44:27.572Z,8.66
2023-11-15T05:46:55.609Z,8.62
2023-11-15T05:49:23.392Z,8.61
2023-11-15T05:51:51.612Z,8.63
2023-11-15T05:54:19.289Z,8.62
2023-11-15T05:56:50.589Z,8.66
2023-11-15T05:59:18.373Z,8.66
2023-11-15T06:01:46.550Z,8.66
2023-11-15T06:04:14.359Z,8.61
2023-11-15T06:06:42.351Z,8.59
2023-11-15T06:09:14.785Z,8.61
2023-11-15T06:11:43.611Z,8.61
2023-11-15T06:14:13.472Z,8.60
2023-11-15T06:16:41.763Z,8.61
2023-11-15T06:19:09.914Z,8.58
2023-11-15T06:21:42.778Z,8.57
2023-11-15T06:24:11.105Z,8.57
2023-11-15T06:26:39.706Z,8.56
2023-11-15T06:29:08.483Z,8.58
2023-11-15T06:31:39.832Z,8.60
2023-11-15T06:34:08.623Z,8.56
2023-11-15T06:36:36.691Z,8.56
2023-11-15T06:39:06.326Z,8.55
2023-11-15T06:41:39.826Z,8.58
2023-11-15T06:44:08.681Z,8.58
2023-11-15T06:46:40.390Z,8.61
2023-11-15T06:49:11.988Z,8.65
2023-11-15T06:51:47.618Z,8.67
2023-11-15T06:54:15.372Z,8.68
2023-11-15T06:56:49.941Z,8.70
2023-11-15T06:59:18.613Z,8.74
2023-11-15T07:01:49.463Z,8.77
2023-11-15T07:04:18.224Z,8.80
2023-11-15T07:06:49.661Z,8.81
2023-11-15T07:09:17.605Z,8.81
2023-11-15T07:11:47.968Z,8.85
2023-11-15T07:14:17.049Z,8.82
2023-11-15T07:16:57.366Z,8.82
2023-11-15T07:19:25.906Z,8.82
2023-11-15T07:21:54.550Z,8.84
2023-11-15T07:24:23.118Z,8.83
2023-11-15T07:26:51.416Z,8.84
2023-11-15T07:29:19.613Z,8.84
2023-11-15T07:31:54.839Z,8.88
2023-11-15T07:34:23.772Z,8.91
2023-11-15T07:36:54.936Z,8.91
2023-11-15T07:39:23.201Z,8.94
2023-11-15T07:41:52.024Z,9.03
2023-11-15T07:44:21.194Z,9.09
2023-11-15T07:46:53.506Z,9.18
2023-11-15T07:49:24.740Z,9.36
2023-11-15T07:51:53.069Z,9.46
2023-11-15T07:54:21.225Z,9.60
2023-11-15T07:56:49.363Z,9.65
2023-11-15T07:59:18.144Z,9.65
2023-11-15T08:01:48.106Z,9.65
2023-11-15T08:04:17.385Z,9.63
2023-11-15T08:06:45.755Z,9.57
2023-11-15T08:09:26.052Z,9.47
2023-11-15T08:11:56.606Z,9.45
2023-11-15T08:14:25.620Z,9.36
2023-11-15T08:16:54.423Z,9.32
2023-11-15T08:19:22.369Z,9.32
2023-11-15T08:21:50.536Z,9.32
2023-11-15T08:24:22.663Z,9.26
2023-11-15T08:26:54.374Z,9.24
2023-11-15T08:29:23.261Z,9.25
2023-11-15T08:31:51.654Z,9.28
2023-11-15T08:34:23.872Z,9.31
2023-11-15T08:36:53.009Z,9.38
2023-11-15T08:39:23.759Z,9.46
2023-11-15T08:41:52.322Z,9.51
2023-11-15T08:44:20.192Z,9.57
2023-11-15T08:46:49.551Z,9.81
2023-11-15T08:49:18.176Z,10.07
2023-11-15T08:51:48.549Z,10.12
2023-11-15T08:54:17.390Z,10.14
2023-11-15T08:56:46.836Z,10.09
2023-11-15T08:59:16.132Z,10.01
2023-11-15T09:01:45.837Z,9.94
2023-11-15T09:04:14.918Z,10.07
2023-11-15T09:06:49.057Z,10.55
2023-11-15T09:09:18.736Z,11.36
2023-11-15T09:11:48.549Z,11.76
2023-11-15T09:14:17.569Z,11.89
2023-11-15T09:16:46.173Z,12.08
2023-11-15T09:19:18.467Z,12.11
2023-11-15T09:21:50.130Z,12.10
2023-11-15T09:24:26.111Z,11.92
2023-11-15T09:26:54.217Z,11.76
2023-11-15T09:29:22.276Z,12.09
2023-11-15T09:31:51.440Z,12.54
2023-11-15T09:34:19.519Z,13.21
2023-11-15T09:36:49.265Z,13.54
2023-11-15T09:39:19.736Z,13.82
2023-11-15T09:41:55.272Z,13.67
2023-11-15T09:44:25.114Z,13.24
2023-11-15T09:46:55.059Z,12.89
2023-11-15T09:49:25.589Z,12.51
2023-11-15T09:51:54.183Z,12.21
2023-11-15T09:54:23.297Z,12.13
2023-11-15T09:56:51.630Z,12.15
2023-11-15T09:59:20.263Z,12.06
2023-11-15T10:01:50.694Z,11.94
2023-11-15T10:04:26.724Z,11.74
2023-11-15T10:07:05.672Z,11.67
2023-11-15T10:09:36.481Z,11.43
2023-11-15T10:12:07.436Z,11.35
2023-11-15T10:14:39.191Z,11.42
2023-11-15T10:17:08.422Z,11.33
2023-11-15T10:19:36.565Z,11.33
2023-11-15T10:22:06.291Z,11.67
2023-11-15T10:24:36.434Z,11.84
2023-11-15T10:27:16.147Z,11.71
2023-11-15T10:29:47.984Z,11.52
2023-11-15T10:32:22.014Z,11.63
2023-11-15T10:34:52.806Z,11.55
2023-11-15T10:37:20.924Z,11.37
2023-11-15T10:39:49.365Z,11.06
2023-11-15T10:42:19.318Z,10.80
2023-11-15T10:44:49.439Z,10.58
2023-11-15T10:47:24.054Z,10.31
2023-11-15T10:49:59.131Z,10.19
2023-11-15T10:52:30.611Z,10.16
2023-11-15T10:54:58.957Z,10.01
2023-11-15T10:57:28.962Z,9.87
2023-11-15T11:00:07.322Z,9.70
2023-11-15T11:02:39.746Z,9.75
2023-11-15T11:05:10.043Z,9.71
2023-11-15T11:07:50.485Z,9.78
2023-11-15T11:11:07.651Z,9.92
2023-11-15T11:13:35.941Z,10.01
2023-11-15T11:19:28.856Z,9.96
2023-11-15T11:22:04.462Z,10.07
2023-11-15T11:24:39.812Z,10.06
2023-11-15T11:27:13.288Z,10.09
2023-11-15T11:29:50.623Z,10.26
2023-11-15T11:32:28.134Z,10.39
2023-11-15T11:35:02.456Z,10.34
2023-11-15T11:37:46.370Z,10.32
2023-11-15T11:40:15.742Z,10.46
2023-11-15T11:42:45.105Z,10.49
2023-11-15T11:45:15.052Z,10.49
2023-11-15T11:47:47.605Z,10.58
2023-11-15T11:50:25.556Z,10.59
2023-11-15T11:52:57.864Z,10.50
2023-11-15T11:55:27.364Z,10.46
2023-11-15T11:57:55.201Z,10.49
2023-11-15T12:00:23.554Z,10.38
2023-11-15T12:03:00.954Z,10.20
2023-11-15T12:05:34.116Z,10.18
2023-11-15T12:08:04.092Z,10.06
2023-11-15T12:10:32.378Z,9.98
2023-11-15T12:13:04.229Z,9.99
2023-11-15T12:15:33.001Z,10.18
2023-11-15T12:18:01.458Z,10.32
2023-11-15T12:20:35.099Z,10.41
2023-11-15T12:23:09.389Z,10.63
2023-11-15T12:25:47.033Z,10.51
2023-11-15T12:28:16.107Z,10.43
2023-11-15T12:30:44.950Z,10.30
2023-11-15T12:33:13.980Z,10.09
2023-11-15T12:35:43.720Z,9.95
2023-11-15T12:38:14.391Z,9.98
2023-11-15T12:40:45.513Z,9.85
2023-11-15T12:43:20.902Z,9.67
2023-11-15T12:45:51.232Z,9.30
2023-11-15T12:48:19.427Z,9.01
2023-11-15T12:50:49.325Z,8.74
2023-11-15T12:53:18.957Z,8.58
2023-11-15T12:55:52.424Z,8.58
2023-11-15T12:58:22.738Z,8.50
2023-11-15T13:01:08.607Z,8.41
2023-11-15T13:03:38.039Z,8.39
2023-11-15T13:06:17.726Z,8.29
2023-11-15T13:08:52.914Z,8.22
2023-11-15T13:11:25.912Z,8.18
2023-11-15T13:13:54.662Z,8.08
2023-11-15T13:16:27.083Z,8.06
2023-11-15T13:18:55.195Z,7.99
2023-11-15T13:21:24.695Z,7.93
2023-11-15T13:23:56.937Z,7.79
2023-11-15T13:26:26.142Z,7.77
2023-11-15T13:28:54.415Z,7.84
2023-11-15T13:31:25.600Z,7.74
2023-11-15T13:33:57.741Z,7.50
2023-11-15T13:36:27.843Z,7.50
2023-11-15T13:38:55.698Z,7.50
2023-11-15T13:41:25.129Z,7.48
2023-11-15T13:43:53.852Z,7.43
2023-11-15T13:46:29.548Z,7.48
2023-11-15T13:48:59.764Z,7.40
2023-11-15T13:51:29.392Z,7.40
2023-11-15T13:53:58.154Z,7.55
2023-11-15T13:56:26.339Z,7.44
2023-11-15T13:58:54.291Z,7.29
2023-11-15T14:01:22.284Z,7.27
2023-11-15T14:03:50.158Z,7.15
2023-11-15T14:06:18.246Z,7.01
2023-11-15T14:08:52.258Z,6.80
2023-11-15T14:11:30.457Z,6.72
2023-11-15T14:13:58.714Z,6.65
2023-11-15T14:16:27.136Z,6.45
2023-11-15T14:18:56.041Z,6.49
2023-11-15T14:21:25.286Z,6.45
2023-11-15T14:23:53.394Z,6.38
2023-11-15T14:26:21.502Z,6.40
2023-11-15T14:28:50.652Z,6.38
2023-11-15T14:31:19.197Z,6.25
2023-11-15T14:33:47.145Z,6.23
2023-11-15T14:36:17.588Z,6.23
2023-11-15T14:38:48.272Z,6.28
2023-11-15T14:41:17.687Z,6.29
2023-11-15T14:43:46.696Z,6.27
2023-11-15T14:46:18.338Z,6.25
2023-11-15T14:48:46.502Z,6.20
2023-11-15T14:51:15.747Z,6.11
2023-11-15T14:53:54.229Z,6.08
2023-11-15T14:56:23.730Z,6.02
2023-11-15T14:58:54.770Z,5.99
2023-11-15T15:01:25.578Z,5.93
2023-11-15T15:03:53.920Z,5.88
2023-11-15T15:06:22.305Z,5.73
2023-11-15T15:08:50.156Z,5.82
2023-11-15T15:11:18.289Z,5.77
2023-11-15T15:13:46.133Z,5.76
2023-11-15T15:16:16.287Z,5.66
2023-11-15T15:18:44.349Z,5.66
2023-11-15T15:21:12.675Z,5.66
2023-11-15T15:23:40.475Z,5.61
2023-11-15T15:26:08.795Z,5.59
2023-11-15T15:28:36.476Z,5.64
2023-11-15T15:31:05.798Z,5.74
2023-11-15T15:33:34.069Z,5.57
2023-11-15T15:36:04.020Z,5.48
2023-11-15T15:38:31.825Z,5.44
2023-11-15T15:41:01.950Z,5.32
2023-11-15T15:43:30.289Z,5.15
2023-11-15T15:45:58.605Z,5.14
2023-11-15T15:48:26.494Z,5.08
2023-11-15T15:50:54.791Z,5.09
2023-11-15T15:53:22.634Z,5.18
2023-11-15T15:55:50.754Z,5.10
2023-11-15T15:58:18.515Z,5.11
2023-11-15T16:00:47.169Z,5.08
2023-11-15T16:03:14.976Z,5.03
2023-11-15T16:05:43.453Z,4.97
2023-11-15T16:08:11.940Z,4.98
2023-11-15T16:10:42.116Z,4.94
2023-11-15T16:13:10.903Z,4.93
2023-11-15T16:15:39.373Z,5.02
2023-11-15T16:18:07.374Z,5.06
2023-11-15T16:20:35.518Z,5.11
2023-11-15T16:23:03.691Z,5.09
2023-11-15T16:25:33.445Z,5.03
2023-11-15T16:28:01.311Z,4.96
2023-11-15T16:30:32.677Z,4.89
2023-11-15T16:33:01.146Z,4.91
2023-11-15T16:35:31.029Z,4.82
2023-11-15T16:37:58.902Z,4.85
2023-11-15T16:40:26.955Z,4.76
2023-11-15T16:42:54.946Z,4.78
2023-11-15T16:45:25.590Z,4.73
2023-11-15T16:47:53.587Z,4.79
2023-11-15T16:50:21.734Z,4.78
2023-11-15T16:52:51.169Z,4.68
2023-11-15T16:55:19.366Z,4.61
2023-11-15T16:57:47.163Z,4.66
2023-11-15T17:00:17.870Z,4.54
2023-11-15T17:02:45.955Z,4.54
2023-11-15T17:05:14.191Z,4.52
2023-11-15T17:07:42.281Z,4.53
2023-11-15T17:10:10.536Z,4.50
2023-11-15T17:12:38.549Z,4.48
2023-11-15T17:15:07.683Z,4.49
2023-11-15T17:17:35.575Z,4.50
2023-11-15T17:20:06.332Z,4.49
2023-11-15T17:22:36.770Z,4.40
2023-11-15T17:25:18.778Z,4.33
2023-11-15T17:27:47.930Z,4.38
2023-11-15T17:30:16.204Z,4.30
2023-11-15T17:32:44.035Z,4.50
2023-11-15T17:35:12.095Z,4.38
2023-11-15T17:37:40.880Z,4.31
2023-11-15T17:40:10.412Z,4.27
2023-11-15T17:42:38.379Z,4.27
2023-11-15T17:45:08.027Z,4.22
2023-11-15T17:47:35.799Z,4.26
2023-11-15T17:50:05.534Z,4.12
2023-11-15T17:52:33.398Z,4.17
2023-11-15T17:55:01.439Z,4.19
2023-11-15T17:57:34.337Z,4.15
2023-11-15T18:00:06.420Z,4.10
2023-11-15T18:02:34.442Z,4.10
2023-11-15T18:05:05.379Z,4.10
2023-11-15T18:07:33.202Z,4.25
2023-11-15T18:10:02.783Z,4.13
2023-11-15T18:12:30.742Z,4.01
2023-11-15T18:14:58.789Z,3.97
2023-11-15T18:17:26.621Z,3.99
2023-11-15T18:19:54.575Z,3.94
2023-11-15T18:22:22.451Z,4.02
2023-11-15T18:24:50.438Z,3.96
2023-11-15T18:27:18.210Z,3.92
2023-11-15T18:29:46.584Z,3.91
2023-11-15T18:32:14.886Z,3.89
2023-11-15T18:34:43.533Z,3.94
2023-11-15T18:37:11.446Z,3.90
2023-11-15T18:39:39.639Z,3.90
2023-11-15T18:42:11.787Z,3.90
2023-11-15T18:44:42.971Z,3.89
2023-11-15T18:47:12.048Z,3.95
2023-11-15T18:49:43.277Z,3.81
2023-11-15T18:52:11.069Z,3.77
2023-11-15T18:54:40.017Z,3.81
2023-11-15T18:57:08.387Z,3.79
2023-11-15T18:59:37.268Z,3.78
2023-11-15T19:02:05.688Z,3.78
2023-11-15T19:04:34.407Z,3.80
2023-11-15T19:07:04.426Z,3.88
2023-11-15T19:09:37.681Z,3.82
2023-11-15T19:12:06.686Z,3.83
2023-11-15T19:14:35.450Z,3.82
2023-11-15T19:17:03.978Z,3.91
2023-11-15T19:19:32.149Z,3.90
2023-11-15T19:21:59.904Z,3.91
2023-11-15T19:24:27.990Z,3.92
2023-11-15T19:26:55.823Z,3.86
2023-11-15T19:29:23.893Z,3.89
2023-11-15T19:31:51.663Z,4.00
2023-11-15T19:34:19.758Z,3.86
2023-11-15T19:36:48.428Z,3.80
2023-11-15T19:39:16.522Z,3.87
2023-11-15T19:41:44.540Z,3.86
2023-11-15T19:44:14.199Z,3.87
2023-11-15T19:46:42.063Z,3.85
2023-11-15T19:49:11.094Z,3.78
2023-11-15T19:51:39.015Z,3.85
2023-11-15T19:54:08.920Z,3.93
2023-11-15T19:56:37.083Z,3.91
2023-11-15T19:59:05.351Z,3.92
2023-11-15T20:01:33.143Z,3.94
2023-11-15T20:04:04.921Z,3.93
2023-11-15T20:06:33.388Z,3.94
2023-11-15T20:09:01.495Z,3.94
2023-11-15T20:11:29.792Z,3.96
2023-11-15T20:13:57.847Z,3.95
2023-11-15T20:16:26.833Z,3.90
2023-11-15T20:18:55.645Z,3.92
2023-11-15T20:21:24.411Z,3.93
2023-11-15T20:23:54.105Z,3.98
2023-11-15T20:26:22.114Z,4.02
2023-11-15T20:28:50.265Z,4.03
2023-11-15T20:31:18.057Z,3.89
2023-11-15T20:33:46.126Z,3.86
2023-11-15T20:36:14.357Z,3.87
2023-11-15T20:38:42.532Z,3.90
2023-11-15T20:41:11.644Z,3.88
2023-11-15T20:43:39.718Z,3.90
2023-11-15T20:46:17.399Z,3.91
2023-11-15T20:48:48.262Z,3.86
2023-11-15T20:51:16.370Z,3.93
2023-11-15T20:53:45.424Z,3.96
2023-11-15T20:56:13.448Z,3.88
2023-11-15T20:58:41.703Z,3.87
2023-11-15T21:01:10.243Z,3.86
2023-11-15T21:03:38.912Z,3.91
2023-11-15T21:06:07.543Z,3.95
2023-11-15T21:08:38.687Z,3.98
2023-11-15T21:11:06.697Z,4.00
2023-11-15T21:13:36.043Z,3.93
2023-11-15T21:16:07.641Z,4.01
2023-11-15T21:18:35.929Z,4.02
2023-11-15T21:21:04.677Z,4.02
2023-11-15T21:23:33.654Z,3.98
2023-11-15T21:26:01.489Z,4.00
2023-11-15T21:28:29.534Z,4.05
2023-11-15T21:30:57.288Z,4.08
2023-11-15T21:33:26.222Z,4.18
2023-11-15T21:35:54.568Z,4.13
2023-11-15T21:38:26.167Z,4.06
2023-11-15T21:40:54.230Z,3.99
2023-11-15T21:43:23.944Z,4.06
2023-11-15T21:45:51.743Z,4.01
2023-11-15T21:48:22.192Z,3.95
2023-11-15T21:50:50.368Z,3.86
2023-11-15T21:53:18.342Z,3.82
2023-11-15T21:55:46.071Z,3.85
2023-11-15T21:58:14.077Z,3.78
2023-11-15T22:00:41.980Z,3.66
2023-11-15T22:03:10.635Z,3.72
2023-11-15T22:05:40.370Z,3.57
2023-11-15T22:08:08.469Z,3.62
2023-11-15T22:10:36.168Z,3.62
2023-11-15T22:13:04.734Z,3.57
2023-11-15T22:15:32.470Z,3.59
2023-11-15T22:18:00.961Z,3.50
2023-11-15T22:20:29.033Z,3.51
2023-11-15T22:22:57.850Z,3.49
2023-11-15T22:25:25.709Z,3.53
2023-11-15T22:27:53.761Z,3.53
2023-11-15T22:30:22.214Z,3.44
2023-11-15T22:32:50.347Z,3.56
2023-11-15T22:35:18.302Z,3.47
2023-11-15T22:37:46.326Z,3.47
2023-11-15T22:40:14.277Z,3.49
2023-11-15T22:42:47.104Z,3.48
2023-11-15T22:45:14.848Z,3.49
2023-11-15T22:47:42.957Z,3.45
2023-11-15T22:50:11.053Z,3.46
2023-11-15T22:52:39.102Z,3.43
2023-11-15T22:55:08.698Z,3.47
2023-11-15T22:57:36.714Z,3.49
2023-11-15T23:00:05.930Z,3.51
2023-11-15T23:02:34.814Z,3.49
2023-11-15T23:05:03.843Z,3.51
2023-11-15T23:07:32.073Z,3.49
2023-11-15T23:09:59.768Z,3.45
2023-11-15T23:12:27.756Z,3.42
2023-11-15T23:14:55.468Z,3.50
2023-11-15T23:17:23.348Z,3.43
2023-11-15T23:19:51.927Z,3.44
2023-11-15T23:22:19.893Z,3.44
2023-11-15T23:24:47.653Z,3.46
2023-11-15T23:27:17.078Z,3.46
2023-11-15T23:29:44.886Z,3.45
2023-11-15T23:32:12.799Z,3.40
2023-11-15T23:34:40.555Z,3.41
2023-11-15T23:37:08.561Z,3.49
2023-11-15T23:39:36.286Z,3.48
2023-11-15T23:42:05.422Z,3.46
2023-11-15T23:44:36.095Z,3.45
2023-11-15T23:47:07.143Z,3.40
2023-11-15T23:49:37.655Z,3.37
2023-11-15T23:52:06.469Z,3.36
2023-11-15T23:54:34.266Z,3.34
2023-11-15T23:57:04.264Z,3.23
2023-11-15T23:59:32.452Z,3.12
